sensor_id;sensor_type;location;lat;lon;timestamp;P1;durP1;ratioP1;P2;durP2;ratioP2
6937;SDS011;40040;42.706;23.372;2022-12-16T00:02:28;170.40;;;59.43;;
6937;SDS011;40040;42.706;23.372;2022-12-16T00:04:54;166.47;;;59.60;;
6937;SDS011;40040;42.706;23.372;2022-12-16T00:07:22;166.17;;;60.27;;
6937;SDS011;40040;42.706;23.372;2022-12-16T00:09:49;160.43;;;63.10;;
6937;SDS011;40040;42.706;23.372;2022-12-16T00:12:16;168.43;;;59.90;;
6937;SDS011;40040;42.706;23.372;2022-12-16T00:14:42;189.23;;;72.33;;
6937;SDS011;40040;42.706;23.372;2022-12-16T00:17:09;207.13;;;73.17;;
6937;SDS011;40040;42.706;23.372;2022-12-16T00:19:37;193.37;;;70.47;;
6937;SDS011;40040;42.706;23.372;2022-12-16T00:22:04;173.37;;;64.30;;
6937;SDS011;40040;42.706;23.372;2022-12-16T00:24:31;164.87;;;56.97;;
6937;SDS011;40040;42.706;23.372;2022-12-16T00:26:58;171.67;;;61.93;;
6937;SDS011;40040;42.706;23.372;2022-12-16T00:29:25;154.63;;;61.47;;
6937;SDS011;40040;42.706;23.372;2022-12-16T00:31:51;161.20;;;58.23;;
6937;SDS011;40040;42.706;23.372;2022-12-16T00:34:18;175.17;;;59.17;;
6937;SDS011;40040;42.706;23.372;2022-12-16T00:36:47;164.10;;;62.03;;
6937;SDS011;40040;42.706;23.372;2022-12-16T00:39:14;164.53;;;61.17;;
6937;SDS011;40040;42.706;23.372;2022-12-16T00:41:40;176.10;;;63.07;;
6937;SDS011;40040;42.706;23.372;2022-12-16T00:44:07;170.40;;;62.83;;
6937;SDS011;40040;42.706;23.372;2022-12-16T00:46:34;185.23;;;64.23;;
6937;SDS011;40040;42.706;23.372;2022-12-16T00:49:01;142.93;;;53.53;;
6937;SDS011;40040;42.706;23.372;2022-12-16T00:51:28;156.77;;;55.53;;
6937;SDS011;40040;42.706;23.372;2022-12-16T00:53:56;170.73;;;63.30;;
6937;SDS011;40040;42.706;23.372;2022-12-16T00:56:23;148.70;;;56.37;;
6937;SDS011;40040;42.706;23.372;2022-12-16T00:58:50;146.10;;;55.03;;
6937;SDS011;40040;42.706;23.372;2022-12-16T01:01:17;151.10;;;54.40;;
6937;SDS011;40040;42.706;23.372;2022-12-16T01:03:44;154.40;;;54.50;;
6937;SDS011;40040;42.706;23.372;2022-12-16T01:06:12;149.03;;;54.63;;
6937;SDS011;40040;42.706;23.372;2022-12-16T01:08:41;151.73;;;54.23;;
6937;SDS011;40040;42.706;23.372;2022-12-16T01:11:14;147.73;;;50.30;;
6937;SDS011;40040;42.706;23.372;2022-12-16T01:13:41;144.60;;;51.40;;
6937;SDS011;40040;42.706;23.372;2022-12-16T01:16:08;138.07;;;51.40;;
6937;SDS011;40040;42.706;23.372;2022-12-16T01:18:35;149.50;;;52.50;;
6937;SDS011;40040;42.706;23.372;2022-12-16T01:21:03;148.00;;;52.73;;
6937;SDS011;40040;42.706;23.372;2022-12-16T01:23:30;138.63;;;51.57;;
6937;SDS011;40040;42.706;23.372;2022-12-16T01:25:57;162.27;;;54.63;;
6937;SDS011;40040;42.706;23.372;2022-12-16T01:28:27;140.40;;;49.20;;
6937;SDS011;40040;42.706;23.372;2022-12-16T01:30:55;133.53;;;49.93;;
6937;SDS011;40040;42.706;23.372;2022-12-16T01:33:26;150.63;;;50.20;;
6937;SDS011;40040;42.706;23.372;2022-12-16T01:36:00;142.27;;;50.77;;
6937;SDS011;40040;42.706;23.372;2022-12-16T01:38:28;132.30;;;49.73;;
6937;SDS011;40040;42.706;23.372;2022-12-16T01:40:55;137.53;;;49.63;;
6937;SDS011;40040;42.706;23.372;2022-12-16T01:43:23;136.40;;;50.83;;
6937;SDS011;40040;42.706;23.372;2022-12-16T01:45:53;149.27;;;50.13;;
6937;SDS011;40040;42.706;23.372;2022-12-16T01:48:28;145.80;;;49.47;;
6937;SDS011;40040;42.706;23.372;2022-12-16T01:51:01;143.90;;;49.73;;
6937;SDS011;40040;42.706;23.372;2022-12-16T01:53:30;139.00;;;49.87;;
6937;SDS011;40040;42.706;23.372;2022-12-16T01:55:57;143.87;;;49.57;;
6937;SDS011;40040;42.706;23.372;2022-12-16T01:58:29;155.80;;;50.93;;
6937;SDS011;40040;42.706;23.372;2022-12-16T02:01:00;134.93;;;44.87;;
6937;SDS011;40040;42.706;23.372;2022-12-16T02:03:28;132.30;;;47.23;;
6937;SDS011;40040;42.706;23.372;2022-12-16T02:05:59;141.43;;;47.83;;
6937;SDS011;40040;42.706;23.372;2022-12-16T02:08:27;144.00;;;48.33;;
6937;SDS011;40040;42.706;23.372;2022-12-16T02:13:51;165.47;;;50.77;;
6937;SDS011;40040;42.706;23.372;2022-12-16T02:16:43;152.23;;;48.33;;
6937;SDS011;40040;42.706;23.372;2022-12-16T02:19:25;140.17;;;49.57;;
6937;SDS011;40040;42.706;23.372;2022-12-16T02:22:19;129.57;;;48.60;;
6937;SDS011;40040;42.706;23.372;2022-12-16T02:25:09;135.27;;;47.33;;
6937;SDS011;40040;42.706;23.372;2022-12-16T02:27:57;164.70;;;50.87;;
6937;SDS011;40040;42.706;23.372;2022-12-16T02:33:33;146.50;;;50.33;;
6937;SDS011;40040;42.706;23.372;2022-12-16T02:36:15;142.20;;;48.47;;
6937;SDS011;40040;42.706;23.372;2022-12-16T02:38:53;149.50;;;48.77;;
6937;SDS011;40040;42.706;23.372;2022-12-16T02:41:24;111.33;;;40.90;;
6937;SDS011;40040;42.706;23.372;2022-12-16T02:44:00;105.33;;;39.53;;
6937;SDS011;40040;42.706;23.372;2022-12-16T02:46:32;117.93;;;39.73;;
6937;SDS011;40040;42.706;23.372;2022-12-16T02:49:05;127.40;;;39.87;;
6937;SDS011;40040;42.706;23.372;2022-12-16T02:51:32;110.30;;;39.53;;
6937;SDS011;40040;42.706;23.372;2022-12-16T02:54:01;125.17;;;40.50;;
6937;SDS011;40040;42.706;23.372;2022-12-16T02:56:33;98.03;;;37.03;;
6937;SDS011;40040;42.706;23.372;2022-12-16T02:59:15;134.37;;;41.13;;
6937;SDS011;40040;42.706;23.372;2022-12-16T03:01:50;130.60;;;40.93;;
6937;SDS011;40040;42.706;23.372;2022-12-16T03:04:21;106.90;;;38.73;;
6937;SDS011;40040;42.706;23.372;2022-12-16T03:06:56;102.47;;;37.87;;
6937;SDS011;40040;42.706;23.372;2022-12-16T03:09:28;113.43;;;36.47;;
6937;SDS011;40040;42.706;23.372;2022-12-16T03:11:57;103.47;;;36.57;;
6937;SDS011;40040;42.706;23.372;2022-12-16T03:14:27;101.17;;;36.53;;
6937;SDS011;40040;42.706;23.372;2022-12-16T03:16:58;131.80;;;38.07;;
6937;SDS011;40040;42.706;23.372;2022-12-16T03:19:27;91.70;;;34.70;;
6937;SDS011;40040;42.706;23.372;2022-12-16T03:21:58;105.53;;;36.90;;
6937;SDS011;40040;42.706;23.372;2022-12-16T03:24:30;84.73;;;33.10;;
6937;SDS011;40040;42.706;23.372;2022-12-16T03:27:00;96.73;;;34.17;;
6937;SDS011;40040;42.706;23.372;2022-12-16T03:29:35;88.03;;;30.80;;
6937;SDS011;40040;42.706;23.372;2022-12-16T03:32:08;91.50;;;32.60;;
6937;SDS011;40040;42.706;23.372;2022-12-16T03:34:39;81.83;;;30.40;;
6937;SDS011;40040;42.706;23.372;2022-12-16T03:37:11;78.30;;;32.07;;
6937;SDS011;40040;42.706;23.372;2022-12-16T03:39:40;83.77;;;30.97;;
6937;SDS011;40040;42.706;23.372;2022-12-16T03:42:09;86.73;;;30.87;;
6937;SDS011;40040;42.706;23.372;2022-12-16T03:44:38;83.47;;;30.30;;
6937;SDS011;40040;42.706;23.372;2022-12-16T03:47:04;86.83;;;32.43;;
6937;SDS011;40040;42.706;23.372;2022-12-16T03:49:33;90.63;;;33.73;;
6937;SDS011;40040;42.706;23.372;2022-12-16T03:52:00;88.87;;;32.60;;
6937;SDS011;40040;42.706;23.372;2022-12-16T03:54:27;91.00;;;33.27;;
6937;SDS011;40040;42.706;23.372;2022-12-16T03:56:54;84.67;;;32.23;;
6937;SDS011;40040;42.706;23.372;2022-12-16T03:59:20;93.17;;;31.27;;
6937;SDS011;40040;42.706;23.372;2022-12-16T04:01:48;85.43;;;31.73;;
6937;SDS011;40040;42.706;23.372;2022-12-16T04:04:15;72.47;;;29.00;;
6937;SDS011;40040;42.706;23.372;2022-12-16T04:06:44;72.30;;;29.67;;
6937;SDS011;40040;42.706;23.372;2022-12-16T04:09:31;77.40;;;29.80;;
6937;SDS011;40040;42.706;23.372;2022-12-16T04:11:57;86.67;;;32.00;;
6937;SDS011;40040;42.706;23.372;2022-12-16T04:14:41;79.77;;;30.50;;
6937;SDS011;40040;42.706;23.372;2022-12-16T04:17:25;82.47;;;29.83;;
6937;SDS011;40040;42.706;23.372;2022-12-16T04:20:12;73.27;;;30.63;;
6937;SDS011;40040;42.706;23.372;2022-12-16T04:23:00;89.53;;;31.80;;
6937;SDS011;40040;42.706;23.372;2022-12-16T04:25:45;86.03;;;30.13;;
6937;SDS011;40040;42.706;23.372;2022-12-16T04:28:12;79.70;;;31.53;;
6937;SDS011;40040;42.706;23.372;2022-12-16T04:30:39;89.60;;;31.43;;
6937;SDS011;40040;42.706;23.372;2022-12-16T04:33:07;81.13;;;32.03;;
6937;SDS011;40040;42.706;23.372;2022-12-16T04:35:54;86.53;;;33.17;;
6937;SDS011;40040;42.706;23.372;2022-12-16T04:38:39;91.90;;;33.70;;
6937;SDS011;40040;42.706;23.372;2022-12-16T04:41:24;87.03;;;33.57;;
6937;SDS011;40040;42.706;23.372;2022-12-16T04:44:08;89.23;;;33.10;;
6937;SDS011;40040;42.706;23.372;2022-12-16T04:46:52;96.20;;;34.47;;
6937;SDS011;40040;42.706;23.372;2022-12-16T04:49:36;92.10;;;33.57;;
6937;SDS011;40040;42.706;23.372;2022-12-16T04:52:21;85.10;;;32.90;;
6937;SDS011;40040;42.706;23.372;2022-12-16T04:55:07;85.20;;;33.73;;
6937;SDS011;40040;42.706;23.372;2022-12-16T04:57:52;87.17;;;34.70;;
6937;SDS011;40040;42.706;23.372;2022-12-16T05:00:38;116.20;;;43.13;;
6937;SDS011;40040;42.706;23.372;2022-12-16T05:03:22;109.60;;;42.53;;
6937;SDS011;40040;42.706;23.372;2022-12-16T05:06:07;109.87;;;41.70;;
6937;SDS011;40040;42.706;23.372;2022-12-16T05:08:52;104.63;;;36.90;;
6937;SDS011;40040;42.706;23.372;2022-12-16T05:11:38;105.53;;;38.73;;
6937;SDS011;40040;42.706;23.372;2022-12-16T05:14:22;106.27;;;39.00;;
6937;SDS011;40040;42.706;23.372;2022-12-16T05:17:07;107.03;;;40.93;;
6937;SDS011;40040;42.706;23.372;2022-12-16T05:19:51;105.37;;;41.00;;
6937;SDS011;40040;42.706;23.372;2022-12-16T05:22:32;96.43;;;39.77;;
6937;SDS011;40040;42.706;23.372;2022-12-16T05:25:16;105.00;;;41.80;;
6937;SDS011;40040;42.706;23.372;2022-12-16T05:28:01;87.97;;;35.70;;
6937;SDS011;40040;42.706;23.372;2022-12-16T05:30:46;85.93;;;32.83;;
6937;SDS011;40040;42.706;23.372;2022-12-16T05:33:30;78.20;;;31.57;;
6937;SDS011;40040;42.706;23.372;2022-12-16T05:36:14;68.50;;;29.33;;
6937;SDS011;40040;42.706;23.372;2022-12-16T05:38:58;87.03;;;33.53;;
6937;SDS011;40040;42.706;23.372;2022-12-16T05:41:43;92.87;;;34.83;;
6937;SDS011;40040;42.706;23.372;2022-12-16T05:44:28;82.07;;;33.47;;
6937;SDS011;40040;42.706;23.372;2022-12-16T05:47:12;98.63;;;37.80;;
6937;SDS011;40040;42.706;23.372;2022-12-16T05:49:56;126.63;;;48.40;;
6937;SDS011;40040;42.706;23.372;2022-12-16T05:52:46;139.53;;;52.67;;
6937;SDS011;40040;42.706;23.372;2022-12-16T05:55:31;80.20;;;34.47;;
6937;SDS011;40040;42.706;23.372;2022-12-16T05:58:15;120.43;;;43.83;;
6937;SDS011;40040;42.706;23.372;2022-12-16T06:01:01;113.53;;;44.90;;
6937;SDS011;40040;42.706;23.372;2022-12-16T06:03:45;125.43;;;46.43;;
6937;SDS011;40040;42.706;23.372;2022-12-16T06:06:40;134.27;;;48.63;;
6937;SDS011;40040;42.706;23.372;2022-12-16T06:09:25;147.13;;;50.40;;
6937;SDS011;40040;42.706;23.372;2022-12-16T06:12:09;117.67;;;43.73;;
6937;SDS011;40040;42.706;23.372;2022-12-16T06:14:54;134.83;;;48.73;;
6937;SDS011;40040;42.706;23.372;2022-12-16T06:17:41;141.60;;;48.87;;
6937;SDS011;40040;42.706;23.372;2022-12-16T06:20:26;137.77;;;51.80;;
6937;SDS011;40040;42.706;23.372;2022-12-16T06:23:10;136.07;;;49.50;;
6937;SDS011;40040;42.706;23.372;2022-12-16T06:25:54;212.20;;;65.20;;
6937;SDS011;40040;42.706;23.372;2022-12-16T06:28:38;98.17;;;42.20;;
6937;SDS011;40040;42.706;23.372;2022-12-16T06:31:22;110.60;;;43.33;;
6937;SDS011;40040;42.706;23.372;2022-12-16T06:34:08;91.10;;;37.87;;
6937;SDS011;40040;42.706;23.372;2022-12-16T06:36:53;204.70;;;65.83;;
6937;SDS011;40040;42.706;23.372;2022-12-16T06:39:39;155.73;;;56.87;;
6937;SDS011;40040;42.706;23.372;2022-12-16T06:42:23;160.23;;;56.07;;
6937;SDS011;40040;42.706;23.372;2022-12-16T06:45:08;158.60;;;59.13;;
6937;SDS011;40040;42.706;23.372;2022-12-16T06:47:52;151.50;;;61.77;;
6937;SDS011;40040;42.706;23.372;2022-12-16T06:50:38;135.67;;;53.73;;
6937;SDS011;40040;42.706;23.372;2022-12-16T06:53:22;108.93;;;43.47;;
6937;SDS011;40040;42.706;23.372;2022-12-16T06:56:06;146.40;;;52.00;;
6937;SDS011;40040;42.706;23.372;2022-12-16T06:58:51;113.90;;;47.53;;
6937;SDS011;40040;42.706;23.372;2022-12-16T07:01:35;134.33;;;49.10;;
6937;SDS011;40040;42.706;23.372;2022-12-16T07:04:20;223.37;;;77.07;;
6937;SDS011;40040;42.706;23.372;2022-12-16T07:07:05;137.23;;;53.70;;
6937;SDS011;40040;42.706;23.372;2022-12-16T07:09:50;105.27;;;45.77;;
6937;SDS011;40040;42.706;23.372;2022-12-16T07:12:35;96.67;;;42.20;;
6937;SDS011;40040;42.706;23.372;2022-12-16T07:15:19;103.73;;;42.87;;
6937;SDS011;40040;42.706;23.372;2022-12-16T07:18:03;107.27;;;43.63;;
6937;SDS011;40040;42.706;23.372;2022-12-16T07:20:48;108.03;;;45.87;;
6937;SDS011;40040;42.706;23.372;2022-12-16T07:23:33;129.87;;;48.73;;
6937;SDS011;40040;42.706;23.372;2022-12-16T07:26:17;108.87;;;47.03;;
6937;SDS011;40040;42.706;23.372;2022-12-16T07:29:02;90.33;;;38.07;;
6937;SDS011;40040;42.706;23.372;2022-12-16T07:31:47;91.40;;;39.87;;
6937;SDS011;40040;42.706;23.372;2022-12-16T07:34:31;97.20;;;39.77;;
6937;SDS011;40040;42.706;23.372;2022-12-16T07:37:15;102.63;;;43.03;;
6937;SDS011;40040;42.706;23.372;2022-12-16T07:40:00;106.33;;;44.37;;
6937;SDS011;40040;42.706;23.372;2022-12-16T07:42:45;113.13;;;45.20;;
6937;SDS011;40040;42.706;23.372;2022-12-16T07:45:29;164.90;;;59.37;;
6937;SDS011;40040;42.706;23.372;2022-12-16T07:48:14;164.57;;;69.90;;
6937;SDS011;40040;42.706;23.372;2022-12-16T07:51:13;163.13;;;66.67;;
6937;SDS011;40040;42.706;23.372;2022-12-16T07:53:57;141.53;;;63.73;;
6937;SDS011;40040;42.706;23.372;2022-12-16T07:56:42;155.50;;;63.27;;
6937;SDS011;40040;42.706;23.372;2022-12-16T07:59:26;149.53;;;62.67;;
6937;SDS011;40040;42.706;23.372;2022-12-16T08:02:11;145.00;;;59.63;;
6937;SDS011;40040;42.706;23.372;2022-12-16T08:04:55;151.83;;;64.57;;
6937;SDS011;40040;42.706;23.372;2022-12-16T08:07:39;139.73;;;56.03;;
6937;SDS011;40040;42.706;23.372;2022-12-16T08:10:23;111.27;;;48.73;;
6937;SDS011;40040;42.706;23.372;2022-12-16T08:13:09;130.43;;;54.53;;
6937;SDS011;40040;42.706;23.372;2022-12-16T08:15:53;117.90;;;50.90;;
6937;SDS011;40040;42.706;23.372;2022-12-16T08:18:37;180.23;;;76.70;;
6937;SDS011;40040;42.706;23.372;2022-12-16T08:21:22;112.63;;;48.00;;
6937;SDS011;40040;42.706;23.372;2022-12-16T08:24:06;115.63;;;45.67;;
6937;SDS011;40040;42.706;23.372;2022-12-16T08:26:53;97.93;;;43.30;;
6937;SDS011;40040;42.706;23.372;2022-12-16T08:29:38;97.67;;;42.03;;
6937;SDS011;40040;42.706;23.372;2022-12-16T08:32:23;91.70;;;40.10;;
6937;SDS011;40040;42.706;23.372;2022-12-16T08:35:07;87.53;;;37.63;;
6937;SDS011;40040;42.706;23.372;2022-12-16T08:38:06;91.93;;;39.47;;
6937;SDS011;40040;42.706;23.372;2022-12-16T08:40:53;82.90;;;38.17;;
6937;SDS011;40040;42.706;23.372;2022-12-16T08:43:38;81.17;;;36.50;;
6937;SDS011;40040;42.706;23.372;2022-12-16T08:46:24;72.80;;;34.67;;
6937;SDS011;40040;42.706;23.372;2022-12-16T08:49:08;76.67;;;36.80;;
6937;SDS011;40040;42.706;23.372;2022-12-16T08:51:52;74.13;;;36.50;;
6937;SDS011;40040;42.706;23.372;2022-12-16T08:54:36;65.37;;;31.97;;
6937;SDS011;40040;42.706;23.372;2022-12-16T08:57:20;63.10;;;30.57;;
6937;SDS011;40040;42.706;23.372;2022-12-16T09:00:05;70.10;;;32.13;;
6937;SDS011;40040;42.706;23.372;2022-12-16T09:02:55;62.73;;;32.03;;
6937;SDS011;40040;42.706;23.372;2022-12-16T09:05:40;80.33;;;36.10;;
6937;SDS011;40040;42.706;23.372;2022-12-16T09:08:24;76.23;;;35.47;;
6937;SDS011;40040;42.706;23.372;2022-12-16T09:11:09;72.47;;;34.73;;
6937;SDS011;40040;42.706;23.372;2022-12-16T09:13:53;69.90;;;33.80;;
6937;SDS011;40040;42.706;23.372;2022-12-16T09:16:37;66.20;;;32.43;;
6937;SDS011;40040;42.706;23.372;2022-12-16T09:19:23;70.73;;;32.93;;
6937;SDS011;40040;42.706;23.372;2022-12-16T09:22:07;66.03;;;34.20;;
6937;SDS011;40040;42.706;23.372;2022-12-16T09:24:51;69.93;;;33.13;;
6937;SDS011;40040;42.706;23.372;2022-12-16T09:27:36;71.00;;;34.57;;
6937;SDS011;40040;42.706;23.372;2022-12-16T09:30:20;78.63;;;39.05;;
6937;SDS011;40040;42.706;23.372;2022-12-16T09:33:04;59.80;;;31.50;;
6937;SDS011;40040;42.706;23.372;2022-12-16T09:35:50;65.13;;;33.00;;
6937;SDS011;40040;42.706;23.372;2022-12-16T09:38:34;61.58;;;31.20;;
6937;SDS011;40040;42.706;23.372;2022-12-16T09:41:22;65.68;;;32.38;;
6937;SDS011;40040;42.706;23.372;2022-12-16T09:44:17;56.50;;;29.25;;
6937;SDS011;40040;42.706;23.372;2022-12-16T09:47:11;54.38;;;27.85;;
6937;SDS011;40040;42.706;23.372;2022-12-16T09:50:03;51.05;;;27.27;;
6937;SDS011;40040;42.706;23.372;2022-12-16T09:52:51;56.95;;;30.58;;
6937;SDS011;40040;42.706;23.372;2022-12-16T09:55:43;50.25;;;25.30;;
6937;SDS011;40040;42.706;23.372;2022-12-16T09:58:29;70.13;;;34.97;;
6937;SDS011;40040;42.706;23.372;2022-12-16T10:01:20;47.42;;;26.23;;
6937;SDS011;40040;42.706;23.372;2022-12-16T10:04:05;52.85;;;25.90;;
6937;SDS011;40040;42.706;23.372;2022-12-16T10:06:51;55.28;;;27.90;;
6937;SDS011;40040;42.706;23.372;2022-12-16T10:09:42;49.25;;;28.05;;
6937;SDS011;40040;42.706;23.372;2022-12-16T10:12:35;52.28;;;28.15;;
6937;SDS011;40040;42.706;23.372;2022-12-16T10:15:28;49.95;;;27.23;;
6937;SDS011;40040;42.706;23.372;2022-12-16T10:18:21;50.65;;;26.33;;
6937;SDS011;40040;42.706;23.372;2022-12-16T10:21:14;50.72;;;28.50;;
6937;SDS011;40040;42.706;23.372;2022-12-16T10:24:03;50.13;;;27.35;;
6937;SDS011;40040;42.706;23.372;2022-12-16T10:26:56;49.53;;;27.40;;
6937;SDS011;40040;42.706;23.372;2022-12-16T10:29:47;56.00;;;30.52;;
6937;SDS011;40040;42.706;23.372;2022-12-16T10:32:32;51.88;;;28.42;;
6937;SDS011;40040;42.706;23.372;2022-12-16T10:35:22;234.82;;;115.07;;
6937;SDS011;40040;42.706;23.372;2022-12-16T10:38:13;58.47;;;31.60;;
6937;SDS011;40040;42.706;23.372;2022-12-16T10:41:03;52.60;;;28.90;;
6937;SDS011;40040;42.706;23.372;2022-12-16T10:43:51;48.50;;;28.30;;
6937;SDS011;40040;42.706;23.372;2022-12-16T10:46:38;49.53;;;27.80;;
6937;SDS011;40040;42.706;23.372;2022-12-16T10:49:30;57.17;;;32.75;;
6937;SDS011;40040;42.706;23.372;2022-12-16T10:52:16;48.42;;;29.00;;
6937;SDS011;40040;42.706;23.372;2022-12-16T10:55:02;42.17;;;24.20;;
6937;SDS011;40040;42.706;23.372;2022-12-16T10:57:58;41.55;;;24.95;;
6937;SDS011;40040;42.706;23.372;2022-12-16T11:00:49;50.42;;;26.73;;
6937;SDS011;40040;42.706;23.372;2022-12-16T11:03:35;36.78;;;22.65;;
6937;SDS011;40040;42.706;23.372;2022-12-16T11:06:21;38.45;;;23.63;;
6937;SDS011;40040;42.706;23.372;2022-12-16T11:09:19;36.20;;;22.20;;
6937;SDS011;40040;42.706;23.372;2022-12-16T11:12:16;37.45;;;21.75;;
6937;SDS011;40040;42.706;23.372;2022-12-16T11:15:16;39.05;;;23.55;;
6937;SDS011;40040;42.706;23.372;2022-12-16T11:18:08;38.95;;;22.75;;
6937;SDS011;40040;42.706;23.372;2022-12-16T11:21:04;33.85;;;19.80;;
6937;SDS011;40040;42.706;23.372;2022-12-16T11:24:04;37.30;;;19.90;;
6937;SDS011;40040;42.706;23.372;2022-12-16T11:26:54;31.40;;;19.73;;
6937;SDS011;40040;42.706;23.372;2022-12-16T11:29:50;39.38;;;21.88;;
6937;SDS011;40040;42.706;23.372;2022-12-16T11:32:39;34.88;;;20.23;;
6937;SDS011;40040;42.706;23.372;2022-12-16T11:35:30;39.90;;;20.75;;
6937;SDS011;40040;42.706;23.372;2022-12-16T11:38:21;38.50;;;21.60;;
6937;SDS011;40040;42.706;23.372;2022-12-16T11:41:12;28.67;;;18.17;;
6937;SDS011;40040;42.706;23.372;2022-12-16T11:44:05;31.52;;;19.00;;
6937;SDS011;40040;42.706;23.372;2022-12-16T11:46:56;31.23;;;18.52;;
6937;SDS011;40040;42.706;23.372;2022-12-16T11:49:46;26.08;;;16.65;;
6937;SDS011;40040;42.706;23.372;2022-12-16T11:52:32;27.42;;;16.95;;
6937;SDS011;40040;42.706;23.372;2022-12-16T11:55:17;34.13;;;21.40;;
6937;SDS011;40040;42.706;23.372;2022-12-16T11:58:08;32.35;;;19.20;;
6937;SDS011;40040;42.706;23.372;2022-12-16T12:01:02;32.78;;;21.50;;
6937;SDS011;40040;42.706;23.372;2022-12-16T12:03:55;34.78;;;20.30;;
6937;SDS011;40040;42.706;23.372;2022-12-16T12:06:45;38.22;;;20.65;;
6937;SDS011;40040;42.706;23.372;2022-12-16T12:09:47;37.65;;;23.38;;
6937;SDS011;40040;42.706;23.372;2022-12-16T12:12:38;37.13;;;23.73;;
6937;SDS011;40040;42.706;23.372;2022-12-16T12:15:29;48.63;;;29.77;;
6937;SDS011;40040;42.706;23.372;2022-12-16T12:18:23;36.63;;;22.13;;
6937;SDS011;40040;42.706;23.372;2022-12-16T12:21:19;34.35;;;18.33;;
6937;SDS011;40040;42.706;23.372;2022-12-16T12:24:08;27.65;;;17.05;;
6937;SDS011;40040;42.706;23.372;2022-12-16T12:27:07;28.27;;;17.55;;
6937;SDS011;40040;42.706;23.372;2022-12-16T12:30:01;25.83;;;16.90;;
6937;SDS011;40040;42.706;23.372;2022-12-16T12:32:49;27.38;;;16.23;;
6937;SDS011;40040;42.706;23.372;2022-12-16T12:35:45;23.23;;;15.25;;
6937;SDS011;40040;42.706;23.372;2022-12-16T12:38:41;46.30;;;29.13;;
6937;SDS011;40040;42.706;23.372;2022-12-16T12:41:42;26.88;;;16.05;;
6937;SDS011;40040;42.706;23.372;2022-12-16T12:44:41;27.23;;;17.05;;
6937;SDS011;40040;42.706;23.372;2022-12-16T12:47:34;27.95;;;17.70;;
6937;SDS011;40040;42.706;23.372;2022-12-16T12:50:26;32.90;;;19.08;;
6937;SDS011;40040;42.706;23.372;2022-12-16T12:53:18;50.58;;;28.35;;
6937;SDS011;40040;42.706;23.372;2022-12-16T12:56:10;69.82;;;41.20;;
6937;SDS011;40040;42.706;23.372;2022-12-16T12:59:09;191.20;;;59.40;;
6937;SDS011;40040;42.706;23.372;2022-12-16T13:01:59;93.43;;;41.47;;
6937;SDS011;40040;42.706;23.372;2022-12-16T13:04:46;48.40;;;26.13;;
6937;SDS011;40040;42.706;23.372;2022-12-16T13:07:32;37.35;;;21.58;;
6937;SDS011;40040;42.706;23.372;2022-12-16T13:10:30;45.13;;;24.13;;
6937;SDS011;40040;42.706;23.372;2022-12-16T13:13:21;59.30;;;33.72;;
6937;SDS011;40040;42.706;23.372;2022-12-16T13:16:54;75.28;;;39.97;;
6937;SDS011;40040;42.706;23.372;2022-12-16T13:19:41;50.10;;;26.77;;
6937;SDS011;40040;42.706;23.372;2022-12-16T13:22:27;59.85;;;33.15;;
6937;SDS011;40040;42.706;23.372;2022-12-16T13:25:28;53.97;;;31.30;;
6937;SDS011;40040;42.706;23.372;2022-12-16T13:28:20;55.70;;;30.02;;
6937;SDS011;40040;42.706;23.372;2022-12-16T13:31:06;107.03;;;42.45;;
6937;SDS011;40040;42.706;23.372;2022-12-16T13:33:51;55.38;;;30.48;;
6937;SDS011;40040;42.706;23.372;2022-12-16T13:36:37;51.88;;;28.95;;
6937;SDS011;40040;42.706;23.372;2022-12-16T13:39:23;50.63;;;25.73;;
6937;SDS011;40040;42.706;23.372;2022-12-16T13:45:29;55.63;;;29.55;;
6937;SDS011;40040;42.706;23.372;2022-12-16T13:48:32;50.25;;;28.83;;
6937;SDS011;40040;42.706;23.372;2022-12-16T13:54:44;57.95;;;33.03;;
6937;SDS011;40040;42.706;23.372;2022-12-16T13:57:35;50.38;;;28.80;;
6937;SDS011;40040;42.706;23.372;2022-12-16T14:00:23;117.65;;;56.75;;
6937;SDS011;40040;42.706;23.372;2022-12-16T14:03:10;63.45;;;33.22;;
6937;SDS011;40040;42.706;23.372;2022-12-16T14:06:01;70.45;;;38.17;;
6937;SDS011;40040;42.706;23.372;2022-12-16T14:08:50;78.00;;;40.53;;
6937;SDS011;40040;42.706;23.372;2022-12-16T14:11:36;57.13;;;31.33;;
6937;SDS011;40040;42.706;23.372;2022-12-16T14:14:30;29.27;;;18.50;;
6937;SDS011;40040;42.706;23.372;2022-12-16T14:17:21;30.33;;;18.75;;
6937;SDS011;40040;42.706;23.372;2022-12-16T14:20:12;31.13;;;18.58;;
6937;SDS011;40040;42.706;23.372;2022-12-16T14:23:05;28.95;;;19.58;;
6937;SDS011;40040;42.706;23.372;2022-12-16T14:26:08;31.33;;;18.73;;
6937;SDS011;40040;42.706;23.372;2022-12-16T14:28:55;21.98;;;12.48;;
6937;SDS011;40040;42.706;23.372;2022-12-16T14:31:40;34.15;;;19.42;;
6937;SDS011;40040;42.706;23.372;2022-12-16T14:34:26;28.20;;;15.25;;
6937;SDS011;40040;42.706;23.372;2022-12-16T14:37:12;30.25;;;17.77;;
6937;SDS011;40040;42.706;23.372;2022-12-16T14:39:57;34.05;;;20.10;;
6937;SDS011;40040;42.706;23.372;2022-12-16T14:42:43;25.90;;;14.75;;
6937;SDS011;40040;42.706;23.372;2022-12-16T14:45:29;53.58;;;29.40;;
6937;SDS011;40040;42.706;23.372;2022-12-16T14:48:20;37.65;;;21.83;;
6937;SDS011;40040;42.706;23.372;2022-12-16T14:51:14;40.90;;;20.70;;
6937;SDS011;40040;42.706;23.372;2022-12-16T14:54:09;159.95;;;64.65;;
6937;SDS011;40040;42.706;23.372;2022-12-16T14:57:00;49.88;;;26.85;;
6937;SDS011;40040;42.706;23.372;2022-12-16T14:59:45;80.43;;;40.35;;
6937;SDS011;40040;42.706;23.372;2022-12-16T15:02:30;161.63;;;77.13;;
6937;SDS011;40040;42.706;23.372;2022-12-16T15:05:20;22.60;;;12.82;;
6937;SDS011;40040;42.706;23.372;2022-12-16T15:08:13;26.13;;;15.48;;
6937;SDS011;40040;42.706;23.372;2022-12-16T15:10:58;29.52;;;15.30;;
6937;SDS011;40040;42.706;23.372;2022-12-16T15:13:44;30.35;;;17.85;;
6937;SDS011;40040;42.706;23.372;2022-12-16T15:16:31;51.53;;;26.58;;
6937;SDS011;40040;42.706;23.372;2022-12-16T15:19:20;107.43;;;44.95;;
6937;SDS011;40040;42.706;23.372;2022-12-16T15:22:08;70.95;;;34.13;;
6937;SDS011;40040;42.706;23.372;2022-12-16T15:24:56;63.03;;;32.35;;
6937;SDS011;40040;42.706;23.372;2022-12-16T15:27:37;28.42;;;17.00;;
6937;SDS011;40040;42.706;23.372;2022-12-16T15:30:34;16.38;;;10.38;;
6937;SDS011;40040;42.706;23.372;2022-12-16T15:33:22;19.73;;;11.45;;
6937;SDS011;40040;42.706;23.372;2022-12-16T15:36:14;21.70;;;13.10;;
6937;SDS011;40040;42.706;23.372;2022-12-16T15:39:08;59.90;;;32.15;;
6937;SDS011;40040;42.706;23.372;2022-12-16T15:41:54;57.88;;;33.85;;
6937;SDS011;40040;42.706;23.372;2022-12-16T15:44:43;21.25;;;13.02;;
6937;SDS011;40040;42.706;23.372;2022-12-16T15:47:30;29.73;;;16.70;;
6937;SDS011;40040;42.706;23.372;2022-12-16T15:50:19;16.58;;;10.63;;
6937;SDS011;40040;42.706;23.372;2022-12-16T15:53:14;22.13;;;13.05;;
6937;SDS011;40040;42.706;23.372;2022-12-16T15:56:15;24.85;;;13.65;;
6937;SDS011;40040;42.706;23.372;2022-12-16T15:59:11;16.88;;;9.45;;
6937;SDS011;40040;42.706;23.372;2022-12-16T16:02:11;15.23;;;10.07;;